カーブル の空港の天気 - METARとTAF

カーブル国際空港 ( OAKB / KBL ) - アフガニスタン カーブル
飛行場実況気象(Metar)
観測時間08/11 10:20 AFT (08/11 05:50 UTC)
風向・風速不定 2m/s
視程10km以上
天気現象
なし
気温30℃
湿度33%
気圧1013hPa
METAROAKB 110550Z VRB04KT CAVOK 30/12 Q1013 RMK A2992 BLU BLU
過去の天気等 Google飛行場航空写真 Wunderground天気予報

過去48時間のMETAR

飛行場予報(TAF)
発表時間: 8/11 09:35 AFT (8/11 05:05 UTC)
予報対象時間: 11日10時 AFT ~ 12日10時 AFT
風向・風速不定 1m/s
視程10km以上
なし
11日12時 AFT ~ 11日14時 AFT に徐々に
風向・風速北 6m/s
11日18時 AFT ~ 11日20時 AFT に徐々に
風向・風速北 5m/s 瞬間風速 10m/s
11日18時 AFT ~ 11日22時 AFT に一時的に
風向・風速北北東 8m/s 瞬間風速 15m/s
12日2時 AFT ~ 12日4時 AFT に徐々に
風向・風速不定 1m/s
視程10km以上
なし
TAF OAKB 110505Z 1106/1206 VRB02KT CAVOK
BECMG 1108/1110 35012KT
BECMG 1114/1116 01010G20KT
TEMPO 1114/1118 02015G30KT
BECMG 1122/1124 VRB02KT CAVOK